Time;durP1;ratioP1;P1;durP2;ratioP2;P2;SDS_P1;SDS_P2;PMS_P1;PMS_P2;Temp;Humidity;BMP_temperature;BMP_pressure;BME280_temperature;BME280_humidity;BME280_pressure;Samples;Min_cycle;Max_cycle;Signal;HPM_P1;HPM_P2
2020/12/18 00:00:07;;;;;;;;;45.50;39.50;;;;;;;;12263962;28;8859;-56
2020/12/18 00:06:08;;;;;;;;;49.25;42.25;;;;;;;;12261630;28;8863;-56
2020/12/18 00:12:10;;;;;;;;;57.50;44.50;;;;;;;;12264127;28;9250;-55
2020/12/18 00:18:11;;;;;;;;;47.00;42.25;;;;;;;;12261639;28;8859;-55
2020/12/18 00:24:26;;;;;;;;;45.25;38.50;;;;;;;;12263357;28;8952;-55
2020/12/18 00:30:28;;;;;;;;;37.25;29.25;;;;;;;;12261583;28;8852;-53
2020/12/18 00:36:29;;;;;;;;;36.50;34.00;;;;;;;;12262094;29;9715;-54
2020/12/18 00:42:30;;;;;;;;;37.50;34.25;;;;;;;;12245683;29;8877;-54
2020/12/18 00:48:32;;;;;;;;;46.25;37.25;;;;;;;;12261222;29;9659;-55
2020/12/18 00:54:43;;;;;;;;;35.75;33.50;;;;;;;;12255372;29;8869;-55
2020/12/18 01:00:48;;;;;;;;;43.75;35.75;;;;;;;;12243892;29;8927;-54
2020/12/18 01:06:55;;;;;;;;;40.25;30.50;;;;;;;;12260469;29;8880;-54
2020/12/18 01:12:59;;;;;;;;;42.00;33.50;;;;;;;;12262600;29;9602;-56
2020/12/18 01:19:05;;;;;;;;;28.25;27.25;;;;;;;;12260668;29;8928;-55
2020/12/18 01:25:12;;;;;;;;;28.75;27.50;;;;;;;;12262618;29;9604;-55
2020/12/18 01:31:14;;;;;;;;;36.50;29.75;;;;;;;;12260223;29;8889;-55
2020/12/18 01:37:17;;;;;;;;;42.50;35.00;;;;;;;;12242964;29;8865;-55
2020/12/18 01:43:31;;;;;;;;;18.50;15.75;;;;;;;;12248395;28;8862;-56
2020/12/18 01:49:34;;;;;;;;;40.50;32.50;;;;;;;;12250821;28;8870;-54
2020/12/18 01:55:36;;;;;;;;;46.50;36.00;;;;;;;;12252524;28;8854;-55
2020/12/18 02:01:39;;;;;;;;;37.75;32.50;;;;;;;;12266576;28;8854;-55
2020/12/18 02:08:04;;;;;;;;;44.25;37.50;;;;;;;;12256510;28;8861;-56
2020/12/18 02:14:24;;;;;;;;;42.25;36.00;;;;;;;;12266956;28;8850;-55
2020/12/18 02:20:30;;;;;;;;;47.75;38.75;;;;;;;;12250111;28;8870;-56
2020/12/18 02:26:34;;;;;;;;;46.00;37.25;;;;;;;;12268770;28;8874;-56
2020/12/18 02:32:37;;;;;;;;;43.75;35.50;;;;;;;;12248654;28;9005;-55
2020/12/18 02:38:42;;;;;;;;;40.75;35.25;;;;;;;;12236731;28;8931;-55
2020/12/18 02:44:44;;;;;;;;;49.25;38.00;;;;;;;;12248840;28;8900;-55
2020/12/18 02:51:04;;;;;;;;;34.00;30.25;;;;;;;;12266661;28;8863;-55
2020/12/18 02:57:06;;;;;;;;;40.00;31.75;;;;;;;;12266728;28;8846;-54
2020/12/18 03:03:22;;;;;;;;;42.50;37.50;;;;;;;;12250203;28;8930;-55
2020/12/18 03:09:26;;;;;;;;;46.75;37.00;;;;;;;;12249240;28;8862;-54
2020/12/18 03:15:28;;;;;;;;;49.50;39.00;;;;;;;;12247797;28;8893;-53
2020/12/18 03:21:38;;;;;;;;;35.75;33.00;;;;;;;;12249248;28;8843;-55
2020/12/18 03:28:04;;;;;;;;;30.00;25.75;;;;;;;;12254315;28;8870;-54
2020/12/18 03:34:08;;;;;;;;;51.25;40.75;;;;;;;;12247742;28;8877;-54
2020/12/18 03:40:18;;;;;;;;;41.75;40.50;;;;;;;;12247318;28;8865;-53
2020/12/18 03:46:26;;;;;;;;;45.00;34.50;;;;;;;;12246179;28;8881;-53
2020/12/18 03:52:50;;;;;;;;;49.75;38.50;;;;;;;;12257755;28;8869;-54
2020/12/18 03:58:52;;;;;;;;;47.50;42.25;;;;;;;;12245922;28;8944;-56
2020/12/18 04:05:13;;;;;;;;;53.75;42.50;;;;;;;;12253418;28;8878;-55
2020/12/18 04:11:17;;;;;;;;;51.50;42.00;;;;;;;;12245619;28;8847;-53
2020/12/18 04:17:39;;;;;;;;;49.75;38.50;;;;;;;;12232368;28;8961;-55
2020/12/18 04:23:45;;;;;;;;;48.00;42.00;;;;;;;;12247631;28;8875;-56
2020/12/18 04:30:12;;;;;;;;;49.50;39.75;;;;;;;;12260432;28;8846;-53
2020/12/18 04:36:18;;;;;;;;;26.75;16.75;;;;;;;;12262456;28;8842;-55
2020/12/18 04:42:21;;;;;;;;;53.50;40.75;;;;;;;;12244504;29;8842;-54
2020/12/18 04:48:25;;;;;;;;;49.25;39.50;;;;;;;;12246094;29;8988;-55
2020/12/18 04:54:29;;;;;;;;;50.75;43.00;;;;;;;;12244135;29;8859;-54
2020/12/18 05:07:16;;;;;;;;;42.00;35.25;;;;;;;;12452474;23;8895;-47
2020/12/18 05:13:23;;;;;;;;;44.75;38.00;;;;;;;;12234085;29;8935;-48
2020/12/18 05:19:41;;;;;;;;;49.75;40.75;;;;;;;;12215288;29;8849;-49
2020/12/18 05:25:45;;;;;;;;;56.25;43.75;;;;;;;;12246835;29;8845;-54
2020/12/18 05:31:51;;;;;;;;;48.50;41.25;;;;;;;;12228816;29;8880;-47
2020/12/18 05:38:01;;;;;;;;;51.00;42.25;;;;;;;;12230203;29;8899;-49
2020/12/18 05:44:30;;;;;;;;;44.00;40.25;;;;;;;;12228316;29;8885;-46
2020/12/18 05:50:52;;;;;;;;;53.00;42.75;;;;;;;;12216882;29;8880;-50
2020/12/18 05:56:54;;;;;;;;;44.50;35.75;;;;;;;;12228347;29;8942;-49
2020/12/18 06:03:00;;;;;;;;;50.25;44.25;;;;;;;;12245308;28;8932;-52
2020/12/18 06:09:18;;;;;;;;;40.50;37.50;;;;;;;;12274643;28;8874;-50
2020/12/18 06:15:21;;;;;;;;;41.50;38.75;;;;;;;;12274077;28;8870;-50
2020/12/18 06:21:23;;;;;;;;;48.25;40.75;;;;;;;;12283279;28;8977;-49
2020/12/18 06:27:25;;;;;;;;;52.75;44.00;;;;;;;;12280747;28;8838;-49
2020/12/18 06:33:54;;;;;;;;;45.75;38.50;;;;;;;;12274852;28;8851;-52
2020/12/18 06:40:31;;;;;;;;;38.25;38.25;;;;;;;;12272773;28;8893;-50
2020/12/18 06:47:30;;;;;;;;;47.25;36.75;;;;;;;;12268921;28;8949;-49
2020/12/18 06:54:10;;;;;;;;;42.25;30.75;;;;;;;;12236341;28;8882;-51
2020/12/18 07:00:29;;;;;;;;;39.50;37.75;;;;;;;;12273523;28;9667;-49
2020/12/18 07:06:33;;;;;;;;;40.00;38.00;;;;;;;;12288714;28;8851;-50
2020/12/18 07:12:36;;;;;;;;;47.25;42.00;;;;;;;;12291205;28;8831;-53
2020/12/18 07:18:42;;;;;;;;;42.75;34.00;;;;;;;;12288087;28;8863;-53
2020/12/18 07:24:43;;;;;;;;;34.75;28.50;;;;;;;;12282375;28;8847;-50
2020/12/18 07:30:46;;;;;;;;;28.00;23.25;;;;;;;;12288852;28;8839;-53
2020/12/18 07:36:48;;;;;;;;;24.50;13.75;;;;;;;;12288017;28;8835;-52
2020/12/18 07:42:49;;;;;;;;;40.75;38.50;;;;;;;;12289311;28;8831;-49
2020/12/18 07:48:51;;;;;;;;;50.50;44.75;;;;;;;;12286924;28;8855;-53
2020/12/18 07:54:56;;;;;;;;;30.75;30.00;;;;;;;;12283038;28;8866;-52
2020/12/18 08:01:09;;;;;;;;;32.50;29.00;;;;;;;;12283170;28;8842;-51
2020/12/18 08:07:10;;;;;;;;;18.25;15.50;;;;;;;;12277827;28;8926;-52
2020/12/18 08:13:23;;;;;;;;;21.00;18.25;;;;;;;;12287574;28;8920;-49
2020/12/18 08:19:25;;;;;;;;;22.00;21.50;;;;;;;;12285742;28;8863;-51
2020/12/18 08:25:26;;;;;;;;;26.00;23.50;;;;;;;;12278396;28;9353;-52
2020/12/18 08:31:32;;;;;;;;;27.50;24.25;;;;;;;;12278530;28;8933;-48
2020/12/18 08:37:33;;;;;;;;;30.25;27.25;;;;;;;;12276709;28;8929;-49
2020/12/18 08:43:35;;;;;;;;;26.25;24.25;;;;;;;;12279126;29;8895;-49
2020/12/18 08:49:36;;;;;;;;;24.25;24.00;;;;;;;;12278055;28;9142;-54
2020/12/18 08:55:39;;;;;;;;;34.00;29.00;;;;;;;;12291110;28;8855;-49
2020/12/18 09:01:48;;;;;;;;;41.50;37.75;;;;;;;;12281029;28;8847;-51
2020/12/18 09:07:53;;;;;;;;;34.25;30.00;;;;;;;;12292947;28;9627;-51
2020/12/18 09:13:54;;;;;;;;;25.50;23.75;;;;;;;;12289838;28;8867;-53
2020/12/18 09:19:56;;;;;;;;;29.75;22.75;;;;;;;;12294024;28;8835;-52
2020/12/18 09:25:59;;;;;;;;;24.50;23.50;;;;;;;;12286332;28;8863;-53
2020/12/18 09:32:02;;;;;;;;;33.25;25.50;;;;;;;;12293704;28;8859;-53
2020/12/18 09:38:04;;;;;;;;;29.75;26.75;;;;;;;;12293231;28;9658;-54
2020/12/18 09:44:05;;;;;;;;;40.25;30.25;;;;;;;;12294500;28;8835;-55
2020/12/18 09:50:07;;;;;;;;;35.75;29.00;;;;;;;;12284037;29;8955;-51
2020/12/18 09:56:09;;;;;;;;;30.50;29.25;;;;;;;;12289470;28;8957;-53
2020/12/18 10:02:10;;;;;;;;;27.50;26.00;;;;;;;;12291247;28;8883;-52
2020/12/18 10:08:12;;;;;;;;;31.50;29.00;;;;;;;;12290363;28;8922;-51
2020/12/18 10:14:14;;;;;;;;;37.75;34.00;;;;;;;;12288083;28;8843;-52
2020/12/18 10:20:15;;;;;;;;;29.00;25.50;;;;;;;;12291939;28;9623;-53
2020/12/18 10:26:18;;;;;;;;;31.25;25.25;;;;;;;;12293152;28;8941;-51
2020/12/18 10:32:22;;;;;;;;;33.75;31.75;;;;;;;;12291471;28;8858;-52
2020/12/18 10:38:24;;;;;;;;;23.00;21.50;;;;;;;;12289472;28;8843;-51
2020/12/18 10:44:26;;;;;;;;;37.00;34.75;;;;;;;;12278646;28;8854;-51
2020/12/18 10:50:27;;;;;;;;;38.75;33.00;;;;;;;;12288762;28;9009;-52
2020/12/18 10:56:29;;;;;;;;;40.75;40.75;;;;;;;;12286954;28;8877;-52
2020/12/18 11:02:33;;;;;;;;;34.00;30.00;;;;;;;;12288083;28;8843;-50
2020/12/18 11:08:34;;;;;;;;;39.00;36.50;;;;;;;;12285980;28;8855;-52
2020/12/18 11:14:38;;;;;;;;;35.75;33.75;;;;;;;;12285095;28;8861;-48
2020/12/18 11:20:39;;;;;;;;;40.25;36.00;;;;;;;;12287073;28;8971;-53
2020/12/18 11:26:41;;;;;;;;;44.75;41.00;;;;;;;;12287631;28;8928;-50
2020/12/18 11:32:47;;;;;;;;;43.00;38.50;;;;;;;;12285829;28;9016;-52
2020/12/18 11:38:48;;;;;;;;;49.25;41.25;;;;;;;;12282047;28;9549;-51
2020/12/18 11:44:49;;;;;;;;;56.00;47.00;;;;;;;;12281861;28;9631;-53
2020/12/18 11:50:51;;;;;;;;;65.25;49.50;;;;;;;;12287008;28;8843;-53
2020/12/18 11:56:52;;;;;;;;;50.00;44.50;;;;;;;;12286927;28;9678;-51
2020/12/18 12:02:54;;;;;;;;;54.25;45.50;;;;;;;;12280491;28;8843;-50
2020/12/18 12:09:00;;;;;;;;;55.25;47.25;;;;;;;;12284458;28;8873;-53
2020/12/18 12:15:01;;;;;;;;;42.75;39.50;;;;;;;;12272542;28;8961;-56
2020/12/18 12:21:03;;;;;;;;;36.25;33.00;;;;;;;;12286365;28;8851;-49
2020/12/18 12:27:04;;;;;;;;;49.25;43.00;;;;;;;;12270722;28;8851;-48
2020/12/18 12:33:05;;;;;;;;;52.50;42.25;;;;;;;;12267813;28;9927;-50
2020/12/18 12:39:07;;;;;;;;;49.00;38.75;;;;;;;;12278214;28;8874;-55
2020/12/18 12:45:08;;;;;;;;;58.00;45.25;;;;;;;;12271488;29;8854;-54
2020/12/18 12:51:14;;;;;;;;;37.75;36.00;;;;;;;;12285529;29;8960;-54
2020/12/18 12:57:15;;;;;;;;;32.50;32.25;;;;;;;;12280503;29;8892;-53
2020/12/18 13:03:16;;;;;;;;;50.50;44.75;;;;;;;;12286892;28;8875;-52
2020/12/18 13:09:18;;;;;;;;;46.50;40.50;;;;;;;;12281066;29;8888;-57
2020/12/18 13:15:19;;;;;;;;;52.75;42.25;;;;;;;;12277468;28;8859;-57
2020/12/18 13:21:27;;;;;;;;;63.50;51.50;;;;;;;;12286723;29;9709;-55
2020/12/18 13:27:28;;;;;;;;;56.50;46.75;;;;;;;;12277915;28;8849;-54
2020/12/18 13:33:30;;;;;;;;;57.75;48.75;;;;;;;;12276823;29;8858;-55
2020/12/18 13:39:31;;;;;;;;;55.00;47.25;;;;;;;;12282635;28;8853;-53
2020/12/18 13:45:33;;;;;;;;;60.00;47.25;;;;;;;;12277407;29;8853;-53
2020/12/18 13:51:34;;;;;;;;;60.75;49.25;;;;;;;;12279557;28;8878;-57
2020/12/18 13:57:35;;;;;;;;;63.00;47.00;;;;;;;;12276900;29;8857;-54
2020/12/18 14:03:37;;;;;;;;;66.25;48.75;;;;;;;;12295301;28;8868;-51
2020/12/18 14:09:38;;;;;;;;;42.00;40.25;;;;;;;;12292822;28;8847;-50
2020/12/18 14:15:42;;;;;;;;;47.50;42.75;;;;;;;;12288560;28;8890;-51
2020/12/18 14:21:45;;;;;;;;;47.50;43.50;;;;;;;;12284981;28;9643;-51
2020/12/18 14:27:46;;;;;;;;;63.75;49.00;;;;;;;;12290552;28;8847;-53
2020/12/18 14:33:48;;;;;;;;;38.75;30.25;;;;;;;;12289405;28;8948;-53
2020/12/18 14:39:49;;;;;;;;;58.00;46.75;;;;;;;;12286139;28;8861;-54
2020/12/18 14:45:50;;;;;;;;;57.00;46.75;;;;;;;;12284321;28;8858;-53
2020/12/18 14:51:52;;;;;;;;;61.75;46.50;;;;;;;;12290787;28;9608;-51
2020/12/18 14:57:53;;;;;;;;;53.75;45.50;;;;;;;;12290272;28;8862;-53
2020/12/18 15:03:55;;;;;;;;;44.00;41.75;;;;;;;;12288654;28;8855;-52
2020/12/18 15:09:56;;;;;;;;;31.75;27.75;;;;;;;;12279181;28;9031;-52
2020/12/18 15:15:58;;;;;;;;;32.25;30.00;;;;;;;;12288758;28;8883;-53
2020/12/18 15:22:01;;;;;;;;;42.25;36.50;;;;;;;;12284720;28;8863;-54
2020/12/18 15:28:03;;;;;;;;;47.50;38.50;;;;;;;;12275568;28;8870;-56
2020/12/18 15:34:04;;;;;;;;;41.50;39.50;;;;;;;;12286789;29;8853;-54
2020/12/18 15:40:06;;;;;;;;;41.00;36.00;;;;;;;;12275237;28;8827;-53
2020/12/18 15:46:12;;;;;;;;;41.00;34.50;;;;;;;;12281569;28;8873;-54
2020/12/18 15:52:13;;;;;;;;;47.00;39.50;;;;;;;;12280995;28;8855;-54
2020/12/18 15:58:15;;;;;;;;;34.00;29.75;;;;;;;;12286648;28;8851;-55
2020/12/18 16:04:24;;;;;;;;;46.50;43.50;;;;;;;;12264387;28;8859;-54
2020/12/18 16:10:27;;;;;;;;;46.50;39.25;;;;;;;;12286207;28;8851;-53
2020/12/18 16:16:38;;;;;;;;;46.50;42.75;;;;;;;;12287880;28;8874;-52
2020/12/18 16:22:39;;;;;;;;;46.00;44.00;;;;;;;;12279339;28;8843;-49
2020/12/18 16:28:41;;;;;;;;;48.25;43.75;;;;;;;;12286413;28;8843;-53
2020/12/18 16:34:42;;;;;;;;;40.75;35.50;;;;;;;;12287607;28;8905;-55
2020/12/18 16:40:49;;;;;;;;;51.50;42.50;;;;;;;;12276241;28;8937;-53
2020/12/18 16:46:50;;;;;;;;;54.75;45.75;;;;;;;;12285809;29;8839;-49
2020/12/18 16:52:51;;;;;;;;;54.00;46.00;;;;;;;;12286526;29;8883;-54
2020/12/18 16:58:53;;;;;;;;;51.75;43.25;;;;;;;;12285947;29;8835;-53
2020/12/18 17:04:55;;;;;;;;;54.50;46.00;;;;;;;;12286308;29;8982;-53
2020/12/18 17:10:57;;;;;;;;;47.75;42.00;;;;;;;;12286937;28;8866;-50
2020/12/18 17:16:59;;;;;;;;;48.75;42.50;;;;;;;;12294460;28;8973;-51
2020/12/18 17:23:00;;;;;;;;;50.00;44.75;;;;;;;;12295305;28;8851;-50
2020/12/18 17:29:02;;;;;;;;;49.75;43.00;;;;;;;;12294187;28;8905;-48
2020/12/18 17:35:03;;;;;;;;;51.50;43.25;;;;;;;;12296100;28;8839;-54
2020/12/18 17:41:05;;;;;;;;;49.75;42.50;;;;;;;;12293814;28;8846;-51
2020/12/18 17:47:06;;;;;;;;;55.50;45.75;;;;;;;;12292916;28;9710;-52
2020/12/18 17:53:18;;;;;;;;;52.00;46.00;;;;;;;;12293327;28;9007;-50
2020/12/18 17:59:20;;;;;;;;;55.50;46.75;;;;;;;;12292721;28;8835;-49
2020/12/18 18:05:22;;;;;;;;;49.00;45.00;;;;;;;;12293435;28;8881;-50
2020/12/18 18:11:25;;;;;;;;;55.75;47.50;;;;;;;;12292259;28;8855;-51
2020/12/18 18:17:27;;;;;;;;;62.50;44.75;;;;;;;;12293860;28;8847;-53
2020/12/18 18:23:28;;;;;;;;;68.25;51.50;;;;;;;;12267179;28;8843;-51
2020/12/18 18:29:31;;;;;;;;;65.75;51.25;;;;;;;;12291384;28;8847;-51
2020/12/18 18:35:32;;;;;;;;;64.00;50.75;;;;;;;;12292328;28;8847;-51
2020/12/18 18:41:38;;;;;;;;;62.50;49.50;;;;;;;;12290308;28;8909;-52
2020/12/18 18:47:41;;;;;;;;;67.25;54.50;;;;;;;;12275610;28;8835;-51
2020/12/18 18:53:43;;;;;;;;;55.25;48.50;;;;;;;;12290588;28;8878;-48
2020/12/18 18:59:44;;;;;;;;;65.00;52.00;;;;;;;;12290474;28;9596;-49
2020/12/18 19:05:46;;;;;;;;;55.00;47.00;;;;;;;;12290655;28;8867;-53
2020/12/18 19:11:47;;;;;;;;;60.75;48.00;;;;;;;;12289261;28;8855;-52
2020/12/18 19:17:48;;;;;;;;;68.75;49.50;;;;;;;;12289748;28;8839;-52
2020/12/18 19:23:50;;;;;;;;;57.00;49.00;;;;;;;;12289648;28;8859;-55
2020/12/18 19:29:51;;;;;;;;;55.00;47.75;;;;;;;;12289012;28;8854;-51
2020/12/18 19:35:53;;;;;;;;;63.50;51.75;;;;;;;;12289936;28;8859;-52
2020/12/18 19:41:54;;;;;;;;;70.00;54.50;;;;;;;;12288051;28;8854;-50
2020/12/18 19:47:56;;;;;;;;;65.75;52.00;;;;;;;;12288553;28;9628;-53
2020/12/18 19:53:58;;;;;;;;;62.00;49.25;;;;;;;;12288943;28;8866;-52
2020/12/18 19:59:59;;;;;;;;;64.50;50.50;;;;;;;;12286933;28;8867;-52
2020/12/18 20:06:06;;;;;;;;;62.00;49.75;;;;;;;;12288368;28;9460;-52
2020/12/18 20:12:12;;;;;;;;;68.75;51.00;;;;;;;;12286355;28;8898;-52
2020/12/18 20:18:13;;;;;;;;;62.00;51.25;;;;;;;;12287115;28;8839;-51
2020/12/18 20:24:15;;;;;;;;;63.75;53.50;;;;;;;;12287136;28;8851;-48
2020/12/18 20:30:19;;;;;;;;;60.75;49.75;;;;;;;;12286173;28;8842;-51
2020/12/18 20:36:22;;;;;;;;;62.50;49.25;;;;;;;;12288449;28;8861;-52
2020/12/18 20:42:24;;;;;;;;;68.00;49.50;;;;;;;;12285632;28;8882;-51
2020/12/18 20:48:25;;;;;;;;;67.75;52.25;;;;;;;;12295019;28;8975;-52
2020/12/18 20:54:27;;;;;;;;;64.25;51.25;;;;;;;;12302298;28;8855;-48
2020/12/18 21:00:28;;;;;;;;;71.75;53.00;;;;;;;;12301135;28;8847;-53
2020/12/18 21:06:29;;;;;;;;;58.00;45.25;;;;;;;;12302223;28;8843;-51
2020/12/18 21:12:31;;;;;;;;;69.25;56.00;;;;;;;;12301606;28;8999;-53
2020/12/18 21:18:32;;;;;;;;;63.00;53.50;;;;;;;;12302301;28;9646;-50
2020/12/18 21:24:34;;;;;;;;;66.50;53.50;;;;;;;;12301709;28;8905;-52
2020/12/18 21:30:37;;;;;;;;;74.75;57.50;;;;;;;;12283232;28;8863;-49
2020/12/18 21:36:43;;;;;;;;;73.50;56.75;;;;;;;;12294604;28;8885;-52
2020/12/18 21:42:45;;;;;;;;;70.75;56.50;;;;;;;;12301580;28;8877;-52
2020/12/18 21:48:47;;;;;;;;;73.25;56.25;;;;;;;;12283634;28;8873;-55
2020/12/18 21:54:48;;;;;;;;;57.00;48.75;;;;;;;;12301928;28;8949;-51
2020/12/18 22:00:49;;;;;;;;;60.75;51.75;;;;;;;;12294796;28;8855;-49
2020/12/18 22:06:57;;;;;;;;;59.75;46.50;;;;;;;;12294149;28;8874;-53
2020/12/18 22:12:58;;;;;;;;;66.75;51.25;;;;;;;;12291957;28;8994;-52
2020/12/18 22:19:00;;;;;;;;;66.00;49.50;;;;;;;;12292664;28;8933;-54
2020/12/18 22:25:01;;;;;;;;;56.00;48.75;;;;;;;;12292213;28;8966;-49
2020/12/18 22:31:03;;;;;;;;;57.50;46.50;;;;;;;;12290918;28;8861;-53
2020/12/18 22:37:17;;;;;;;;;61.00;51.50;;;;;;;;12292462;28;8855;-49
2020/12/18 22:43:19;;;;;;;;;65.25;54.00;;;;;;;;12290158;28;8854;-51
2020/12/18 22:49:20;;;;;;;;;66.50;48.75;;;;;;;;12291640;28;9631;-50
2020/12/18 22:55:22;;;;;;;;;58.25;47.00;;;;;;;;12291065;28;8864;-55
2020/12/18 23:01:24;;;;;;;;;63.25;49.25;;;;;;;;12289782;28;8890;-50
2020/12/18 23:07:32;;;;;;;;;57.00;44.50;;;;;;;;12291090;28;9717;-50
2020/12/18 23:13:34;;;;;;;;;64.25;51.00;;;;;;;;12288708;28;9677;-50
2020/12/18 23:19:35;;;;;;;;;58.25;47.50;;;;;;;;12289835;28;8855;-51
2020/12/18 23:25:37;;;;;;;;;56.50;45.00;;;;;;;;12289553;28;8855;-49
2020/12/18 23:31:38;;;;;;;;;54.75;46.00;;;;;;;;12288718;28;8853;-52
2020/12/18 23:37:53;;;;;;;;;53.00;43.25;;;;;;;;12282965;28;8859;-48
2020/12/18 23:43:55;;;;;;;;;50.25;43.00;;;;;;;;12287849;28;8874;-47
2020/12/18 23:49:56;;;;;;;;;55.25;46.25;;;;;;;;12289896;28;8846;-50
2020/12/18 23:55:58;;;;;;;;;49.25;44.25;;;;;;;;12287772;28;8859;-50
